createdAt,value
2018-11-22T12:17:34.017Z,16.03
2018-11-22T12:20:02.446Z,15.27
2018-11-22T12:22:30.885Z,15.00
2018-11-22T12:24:59.398Z,15.47
2018-11-22T12:27:27.894Z,15.50
2018-11-22T12:29:56.328Z,15.70
2018-11-22T12:32:29.009Z,14.50
2018-11-22T12:35:01.648Z,14.07
2018-11-22T12:37:34.243Z,14.27
2018-11-22T12:40:03.037Z,14.93
2018-11-22T12:42:31.417Z,15.63
2018-11-22T12:45:03.956Z,15.60
2018-11-22T12:47:33.485Z,17.07
2018-11-22T12:50:02.597Z,16.87
2018-11-22T12:52:30.925Z,15.37
2018-11-22T12:54:59.280Z,16.30
2018-11-22T12:57:27.886Z,15.60
2018-11-22T12:59:56.372Z,16.60
2018-11-22T13:02:25.425Z,15.90
2018-11-22T13:04:54.258Z,16.40
2018-11-22T13:07:22.678Z,16.43
2018-11-22T13:09:51.113Z,15.47
2018-11-22T13:12:19.610Z,16.43
2018-11-22T13:14:49.307Z,15.83
2018-11-22T13:17:17.790Z,16.00
2018-11-22T13:19:46.298Z,16.13
2018-11-22T13:22:14.677Z,16.33
2018-11-22T13:24:43.339Z,16.37
2018-11-22T13:27:12.018Z,18.50
2018-11-22T13:29:40.484Z,16.43
2018-11-22T13:32:08.857Z,17.00
2018-11-22T13:34:37.378Z,19.48
2018-11-22T13:37:05.767Z,17.53
2018-11-22T13:39:34.637Z,17.40
2018-11-22T13:42:03.068Z,18.77
2018-11-22T13:44:31.501Z,16.73
2018-11-22T13:46:59.922Z,18.23
2018-11-22T13:49:28.325Z,18.60
2018-11-22T13:51:56.718Z,19.50
2018-11-22T13:54:25.138Z,20.40
2018-11-22T13:56:53.634Z,19.10
2018-11-22T13:59:22.277Z,19.17
2018-11-22T14:01:50.918Z,19.33
2018-11-22T14:04:19.358Z,18.90
2018-11-22T14:06:47.882Z,18.57
2018-11-22T14:09:16.350Z,17.77
2018-11-22T14:11:44.838Z,18.90
2018-11-22T14:14:13.303Z,18.50
2018-11-22T14:16:41.727Z,18.00
2018-11-22T14:19:10.268Z,17.53
2018-11-22T14:21:38.678Z,19.43
2018-11-22T14:24:07.071Z,19.13
2018-11-22T14:26:35.492Z,19.47
2018-11-22T14:29:03.911Z,18.73
2018-11-22T14:31:32.344Z,20.27
2018-11-22T14:34:00.862Z,18.00
2018-11-22T14:36:29.303Z,18.17
2018-11-22T14:38:59.743Z,19.67
2018-11-22T14:41:32.019Z,19.90
2018-11-22T14:44:00.587Z,19.10
2018-11-22T14:46:29.019Z,19.77
2018-11-22T14:48:58.059Z,19.53
2018-11-22T14:51:32.797Z,20.63
2018-11-22T14:54:01.359Z,19.67
2018-11-22T14:56:29.857Z,21.33
2018-11-22T14:58:58.321Z,20.50
2018-11-22T15:02:05.241Z,19.47
2018-11-22T15:04:33.699Z,19.17
2018-11-22T15:08:21.255Z,19.93
2018-11-22T15:11:02.861Z,20.03
2018-11-22T15:13:39.104Z,19.90
2018-11-22T15:16:07.589Z,21.10
2018-11-22T15:18:36.068Z,19.07
2018-11-22T15:21:04.905Z,21.03
2018-11-22T15:23:34.097Z,21.03
2018-11-22T15:26:02.554Z,19.53
2018-11-22T15:28:31.756Z,20.83
2018-11-22T15:31:00.240Z,20.47
2018-11-22T15:33:28.720Z,24.15
2018-11-22T15:35:58.212Z,20.43
2018-11-22T15:38:26.654Z,21.43
2018-11-22T15:40:55.208Z,22.70
2018-11-22T15:43:23.667Z,20.90
2018-11-22T15:45:52.248Z,21.50
2018-11-22T15:48:20.682Z,21.87
2018-11-22T15:50:49.526Z,21.80
2018-11-22T15:53:18.487Z,23.63
2018-11-22T15:55:47.392Z,22.60
2018-11-22T15:58:17.387Z,22.63
2018-11-22T16:00:48.929Z,22.33
2018-11-22T16:03:19.493Z,23.23
2018-11-22T16:05:50.165Z,25.63
2018-11-22T16:08:18.908Z,24.93
2018-11-22T16:10:49.934Z,25.37
2018-11-22T16:13:20.516Z,24.80
2018-11-22T16:15:50.773Z,24.37
2018-11-22T16:18:19.226Z,23.93
2018-11-22T16:20:52.200Z,25.40
2018-11-22T16:23:20.627Z,22.93
2018-11-22T16:25:49.468Z,24.80
2018-11-22T16:28:17.913Z,22.97
2018-11-22T16:30:47.049Z,24.20
2018-11-22T16:33:16.281Z,22.67
2018-11-22T16:35:47.569Z,22.33
2018-11-22T16:38:19.897Z,22.77
2018-11-22T16:40:51.287Z,25.80
2018-11-22T16:43:19.792Z,26.23
2018-11-22T16:45:49.087Z,25.67
2018-11-22T16:48:23.138Z,25.50
2018-11-22T16:50:55.075Z,25.10
2018-11-22T16:53:24.158Z,26.60
2018-11-22T16:55:52.770Z,26.63
2018-11-22T16:58:21.451Z,26.03
2018-11-22T17:00:49.900Z,28.13
2018-11-22T17:03:19.306Z,28.73
2018-11-22T17:05:47.838Z,29.43
2018-11-22T17:08:17.647Z,27.90
2018-11-22T17:10:46.148Z,25.97
2018-11-22T17:13:15.835Z,26.90
2018-11-22T17:15:46.116Z,26.73
2018-11-22T17:18:24.719Z,24.67
2018-11-22T17:20:54.968Z,25.70
2018-11-22T17:23:26.099Z,24.77
2018-11-22T17:25:57.806Z,24.20
2018-11-22T17:28:30.639Z,23.63
2018-11-22T17:31:05.095Z,24.53
2018-11-22T17:33:34.747Z,24.23
2018-11-22T17:36:03.192Z,27.63
2018-11-22T17:38:32.140Z,26.40
2018-11-22T17:41:02.753Z,25.27
2018-11-22T17:43:44.620Z,28.37
2018-11-22T17:46:18.678Z,26.53
2018-11-22T17:48:57.233Z,28.60
2018-11-22T17:51:37.540Z,26.83
2018-11-22T17:54:06.490Z,26.80
2018-11-22T17:56:35.007Z,26.13
2018-11-22T17:59:03.492Z,28.40
2018-11-22T18:01:32.073Z,28.90
2018-11-22T18:04:00.511Z,27.90
2018-11-22T18:06:28.906Z,26.60
2018-11-22T18:08:57.405Z,29.50
2018-11-22T18:11:25.913Z,26.60
2018-11-22T18:13:54.324Z,34.45
2018-11-22T18:16:22.833Z,28.77
2018-11-22T18:18:51.288Z,28.83
2018-11-22T18:21:19.804Z,26.57
2018-11-22T18:23:48.252Z,27.23
2018-11-22T18:26:16.771Z,28.40
2018-11-22T18:28:45.243Z,28.83
2018-11-22T18:31:13.648Z,25.90
2018-11-22T18:33:42.103Z,27.93
2018-11-22T18:36:10.598Z,30.63
2018-11-22T18:38:40.098Z,33.42
2018-11-22T18:41:09.486Z,32.07
2018-11-22T18:43:39.578Z,31.40
2018-11-22T18:46:09.783Z,33.27
2018-11-22T18:48:38.388Z,32.33
2018-11-22T18:51:06.866Z,31.90
2018-11-22T18:53:35.297Z,33.43
2018-11-22T18:56:03.764Z,30.27
2018-11-22T18:58:32.278Z,31.97
2018-11-22T19:01:00.826Z,31.03
2018-11-22T19:03:29.269Z,32.60
2018-11-22T19:05:57.796Z,30.33
2018-11-22T19:08:26.210Z,30.93
2018-11-22T19:10:54.626Z,31.90
2018-11-22T19:13:23.091Z,30.17
2018-11-22T19:15:51.685Z,30.17
2018-11-22T19:18:20.157Z,30.70
2018-11-22T19:20:48.610Z,31.53
2018-11-22T19:23:20.026Z,30.00
2018-11-22T19:25:48.446Z,32.27
2018-11-22T19:28:20.149Z,31.37
2018-11-22T19:30:49.073Z,31.07
2018-11-22T19:33:18.744Z,30.47
2018-11-22T19:35:49.207Z,32.73
2018-11-22T19:38:17.687Z,31.43
2018-11-22T19:40:46.370Z,32.07
2018-11-22T19:43:14.887Z,32.47
2018-11-22T19:45:47.943Z,33.00
2018-11-22T19:48:16.685Z,32.10
2018-11-22T19:50:45.039Z,33.40
2018-11-22T19:53:14.562Z,34.47
2018-11-22T19:55:47.206Z,31.47
2018-11-22T19:58:21.103Z,32.20
2018-11-22T20:00:53.543Z,33.43
2018-11-22T20:03:21.946Z,32.27
2018-11-22T20:05:50.776Z,35.13
2018-11-22T20:08:19.785Z,34.53
2018-11-22T20:10:49.105Z,34.20
2018-11-22T20:13:17.527Z,33.47
2018-11-22T20:15:45.944Z,33.17
2018-11-22T20:18:14.525Z,32.90
2018-11-22T20:20:43.094Z,34.40
2018-11-22T20:23:11.450Z,33.70
2018-11-22T20:25:41.728Z,32.70
2018-11-22T20:28:10.199Z,31.50
2018-11-22T20:30:43.172Z,30.13
2018-11-22T20:33:11.703Z,32.70
2018-11-22T20:35:41.995Z,30.27
2018-11-22T20:38:57.562Z,32.63
2018-11-22T20:41:28.102Z,32.20
2018-11-22T20:43:56.549Z,31.83
2018-11-22T20:46:24.971Z,28.63
2018-11-22T20:48:53.427Z,29.83
2018-11-22T20:51:21.881Z,30.37
2018-11-22T20:53:50.388Z,30.40
2018-11-22T20:56:18.861Z,28.97
2018-11-22T20:58:47.268Z,31.83
2018-11-22T21:01:15.733Z,30.83
2018-11-22T21:03:44.284Z,32.13
2018-11-22T21:06:12.874Z,35.25
2018-11-22T21:08:48.428Z,32.73
2018-11-22T21:11:09.748Z,31.03
2018-11-22T21:13:38.219Z,32.30
2018-11-22T21:16:06.767Z,31.87
2018-11-22T21:18:35.155Z,34.10
2018-11-22T21:21:08.974Z,34.23
2018-11-22T21:23:37.418Z,35.63
2018-11-22T21:26:06.335Z,33.43
2018-11-22T21:28:34.776Z,36.47
2018-11-22T21:31:03.223Z,33.33
2018-11-22T21:37:11.664Z,32.50
2018-11-22T21:39:40.193Z,34.63
2018-11-22T21:42:08.703Z,35.80
2018-11-22T21:44:37.176Z,35.03
2018-11-22T21:47:05.765Z,36.50
2018-11-22T21:49:34.135Z,36.53
2018-11-22T21:52:02.624Z,38.90
2018-11-22T21:54:31.016Z,35.60
2018-11-22T21:56:59.463Z,35.93
2018-11-22T21:59:27.853Z,35.50
2018-11-22T22:01:56.239Z,35.23
2018-11-22T22:04:24.652Z,34.87
2018-11-22T22:06:53.148Z,34.00
2018-11-22T22:09:21.552Z,35.07
2018-11-22T22:11:49.971Z,34.97
2018-11-22T22:14:18.755Z,34.07
2018-11-22T22:16:47.138Z,35.77
2018-11-22T22:19:15.510Z,36.80
2018-11-22T22:21:43.890Z,38.27
2018-11-22T22:24:12.247Z,34.73
2018-11-22T22:26:40.700Z,37.50
2018-11-22T22:29:09.064Z,36.53
2018-11-22T22:31:37.423Z,34.80
2018-11-22T22:34:06.029Z,37.93
2018-11-22T22:36:34.383Z,33.87
2018-11-22T22:39:02.903Z,34.53
2018-11-22T22:41:31.270Z,34.43
2018-11-22T22:44:02.260Z,35.90
2018-11-22T22:46:30.633Z,35.40
2018-11-22T22:48:58.980Z,35.47
2018-11-22T22:51:27.365Z,34.90
2018-11-22T22:53:55.777Z,36.80
2018-11-22T22:56:24.181Z,34.67
2018-11-22T22:58:52.547Z,35.43
2018-11-22T23:01:20.908Z,34.80
2018-11-22T23:03:49.238Z,34.73
2018-11-22T23:06:17.597Z,37.30
2018-11-22T23:08:46.082Z,37.90
2018-11-22T23:11:14.445Z,36.37
2018-11-22T23:13:42.826Z,37.30
2018-11-22T23:16:11.230Z,37.40
2018-11-22T23:18:39.685Z,38.00
2018-11-22T23:21:08.083Z,37.20
2018-11-22T23:23:36.494Z,35.63
2018-11-22T23:26:06.235Z,36.90
2018-11-22T23:28:34.720Z,37.93
2018-11-22T23:31:03.065Z,36.10
2018-11-22T23:33:31.554Z,35.57
2018-11-22T23:35:59.959Z,36.73
2018-11-22T23:38:28.298Z,37.57
2018-11-22T23:40:56.810Z,36.63
2018-11-22T23:43:25.189Z,39.43
2018-11-22T23:45:53.568Z,35.93
2018-11-22T23:48:21.992Z,38.03
2018-11-22T23:50:50.397Z,35.60
2018-11-22T23:53:18.830Z,36.97
2018-11-22T23:55:47.268Z,36.63
2018-11-22T23:58:15.667Z,35.20
